Terminal Aerodrome Forecast
Issued by NWS

Home | Current Version | Previous Version | Text Only | Print | Product List | Glossary On
Versions: 1 2 3 4 5 6 7 8 9 10 11 12 13 14 15 16 17 18 19 20
000
FTUS46 KSEW 250520
TAFOLM
TAF
KOLM 250520Z 2506/2606 00000KT P6SM SCT100 BKN150
     FM250900 00000KT 6SM BR FEW009 SCT050 OVC100
      TEMPO 2512/2516 2SM BR BKN007
     FM251600 20003KT P6SM -RA BKN025 OVC050
     FM252100 24004KT P6SM VCSH BKN030 OVC050
     FM260300 20003KT P6SM BKN020 OVC040=

USA.gov is the U.S. government's official web portal to all federal, state and local government web resources and services.